Terminal Aerodrome Forecast
Issued by NWS North Platte, NE

Home | Current Version | Previous Version | Text Only | Print | Product List | Glossary Off
Versions: 1 2 3 4 5 6 7 8 9 10 11 12 13 14 15 16 17 18 19

000
FTUS43 KLBF 260500
TAFVTN
TAF
KVTN 260529Z 2606/2706 10005KT P6SM SCT250
     FM261200 02006KT P6SM SCT250
     FM262000 35013G19KT P6SM SCT050
     FM270000 34009KT P6SM FEW250=

USA.gov is the U.S. government's official web portal to all federal, state and local government web resources and services.